Herat, Afghanistan
Current Conditions -  °F | °C
As of 12:15 PM on Saturday 29 Nov 2014 (Local Time) from OAHR Reporting Station
Haze Haze  
Wind Chill: 37°   Ceiling: 800
Heat Index: 37°   Visibility: 1.2mi
Dew Point: 36°   Wind: 2mph
Humidity: 93%   Direction: 320°NW
Pressure: 30.15"   Gusts: NA
Location:  34.35°N, 62.18°E
Report Text: OAHR 290815Z 32002KT 2000 BR SCT002 BKN008 03/02 Q1021 RMK OVC VIS MIN 2000 YLO
Loading
Personal Weather Stations






























Interactive Weather Map New forecast layout! Learn more

10-Day Weather Forecast

Advertisements
Track Severe Weather on mobile